Time;durP1;ratioP1;P1;durP2;ratioP2;P2;SDS_P1;SDS_P2;PMS_P1;PMS_P2;Temp;Humidity;BMP_temperature;BMP_pressure;BME280_temperature;BME280_humidity;BME280_pressure;Samples;Min_cycle;Max_cycle;Signal;HPM_P1;HPM_P2
2023/02/26 00:00:20;;;;;;;5.00;1.80;;;;;;;-1.63;100.00;95624.78;6194281;23;20426;-91
2023/02/26 00:02:53;;;;;;;4.07;1.43;;;;;;;-1.52;100.00;95628.28;6198269;23;20399;-92
2023/02/26 00:05:26;;;;;;;3.87;1.70;;;;;;;-1.63;100.00;95628.16;6220100;23;20439;-92
2023/02/26 00:07:52;;;;;;;4.23;2.00;;;;;;;-1.55;100.00;95625.91;6228308;22;20449;-91
2023/02/26 00:10:21;;;;;;;4.73;2.00;;;;;;;-1.50;100.00;95629.03;6199766;23;20415;-91
2023/02/26 00:12:46;;;;;;;4.77;1.80;;;;;;;-1.66;100.00;95630.94;6223308;23;20403;-91
2023/02/26 00:15:13;;;;;;;4.87;1.67;;;;;;;-1.69;100.00;95631.97;6198437;23;20012;-91
2023/02/26 00:18:02;;;;;;;5.17;1.27;;;;;;;-1.68;100.00;95638.78;6198697;23;20039;-91
2023/02/26 00:20:30;;;;;;;5.10;1.53;;;;;;;-1.48;100.00;95636.66;6196925;23;20484;-91
2023/02/26 00:22:57;;;;;;;2.77;1.50;;;;;;;-1.57;100.00;95639.84;6219632;22;20430;-91
2023/02/26 00:25:22;;;;;;;4.03;1.67;;;;;;;-1.55;100.00;95641.38;6195342;23;20427;-92
2023/02/26 00:27:51;;;;;;;6.97;2.30;;;;;;;-1.65;100.00;95640.31;6200765;23;20422;-91
2023/02/26 00:30:20;;;;;;;4.20;1.67;;;;;;;-1.57;100.00;95647.59;6201292;23;20004;-92
2023/02/26 00:32:48;;;;;;;3.57;1.60;;;;;;;-1.67;100.00;95645.59;6197975;23;20447;-91
2023/02/26 00:35:15;;;;;;;4.63;2.03;;;;;;;-1.73;100.00;95645.97;6197973;23;21236;-91
2023/02/26 00:38:04;;;;;;;5.27;1.50;;;;;;;-1.70;100.00;95648.38;6197756;23;20504;-92
2023/02/26 00:40:33;;;;;;;8.13;1.77;;;;;;;-1.58;100.00;95643.31;6198847;23;20423;-91
2023/02/26 00:43:00;;;;;;;5.87;1.77;;;;;;;-1.69;100.00;95649.19;6198105;23;20415;-91
2023/02/26 00:45:26;;;;;;;7.50;2.20;;;;;;;-1.65;100.00;95653.22;6198432;23;20435;-91
2023/02/26 00:48:04;;;;;;;4.73;1.97;;;;;;;-1.70;100.00;95650.13;6198931;23;20427;-91
2023/02/26 00:50:31;;;;;;;10.93;4.60;;;;;;;-1.67;100.00;95655.06;6195999;23;20427;-92
2023/02/26 00:53:26;;;;;;;7.33;3.50;;;;;;;-1.75;100.00;95660.72;6198169;23;20461;-91
2023/02/26 00:55:52;;;;;;;11.37;3.60;;;;;;;-1.83;100.00;95657.81;6201710;23;20808;-91
2023/02/26 00:58:18;;;;;;;3.60;1.33;;;;;;;-1.80;100.00;95665.34;6221779;23;20419;-91
2023/02/26 01:00:48;;;;;;;7.37;1.47;;;;;;;-1.93;100.00;95659.31;6196637;23;20012;-91
2023/02/26 01:03:14;;;;;;;2.97;1.40;;;;;;;-1.85;100.00;95653.66;6225287;23;20422;-91
2023/02/26 01:05:40;;;;;;;5.20;1.33;;;;;;;-1.95;100.00;95656.00;6202341;23;20435;-91
2023/02/26 01:08:15;;;;;;;8.93;3.53;;;;;;;-1.98;100.00;95658.75;6199382;23;20838;-91
2023/02/26 01:10:43;;;;;;;6.33;2.50;;;;;;;-1.99;100.00;95654.53;6199524;23;20095;-91
2023/02/26 01:13:17;;;;;;;4.00;1.57;;;;;;;-2.20;100.00;95647.25;6224010;23;20415;-91
2023/02/26 01:15:51;;;;;;;3.93;1.60;;;;;;;-2.10;100.00;95654.41;6202100;23;20407;-91
2023/02/26 01:18:24;;;;;;;7.30;1.73;;;;;;;-2.13;100.00;95656.25;6202363;23;20415;-91
2023/02/26 01:21:04;;;;;;;4.45;1.70;;;;;;;-2.19;100.00;95655.78;6200498;23;20080;-91
2023/02/26 01:23:46;;;;;;;4.80;1.70;;;;;;;-2.34;100.00;95660.16;6203187;23;20016;-91
2023/02/26 01:26:20;;;;;;;3.67;1.50;;;;;;;-2.40;100.00;95650.25;6202139;23;20750;-91
2023/02/26 01:28:46;;;;;;;4.40;1.60;;;;;;;-2.64;100.00;95655.97;6200398;23;20526;-91
2023/02/26 01:31:50;;;;;;;7.73;1.83;;;;;;;-2.61;100.00;95652.38;6200409;23;20478;-92
2023/02/26 01:35:06;;;;;;;5.40;1.60;;;;;;;-2.75;100.00;95650.66;6201575;23;20426;-91
2023/02/26 01:38:19;;;;;;;3.97;1.20;;;;;;;-2.68;100.00;95651.94;6112154;23;20825;-92
2023/02/26 01:41:09;;;;;;;4.40;1.50;;;;;;;-2.79;100.00;95649.16;6197298;23;20538;-91
2023/02/26 01:44:02;;;;;;;5.27;1.83;;;;;;;-2.87;100.00;95647.06;6200346;23;20438;-90
2023/02/26 01:46:34;;;;;;;4.93;1.57;;;;;;;-2.80;100.00;95654.41;6201766;23;20427;-92
2023/02/26 01:49:04;;;;;;;6.47;1.60;;;;;;;-2.82;100.00;95653.66;6202704;23;20431;-92
2023/02/26 01:51:56;;;;;;;5.57;1.50;;;;;;;-2.84;100.00;95646.06;6200753;23;20494;-92
2023/02/26 01:54:33;;;;;;;6.93;2.70;;;;;;;-2.91;100.00;95644.78;6202073;23;20423;-91
2023/02/26 01:57:16;;;;;;;5.20;1.50;;;;;;;-2.96;100.00;95651.91;6205403;23;20422;-92
2023/02/26 01:59:45;;;;;;;5.10;1.47;;;;;;;-3.03;100.00;95658.34;6203130;23;20454;-90
2023/02/26 02:02:15;;;;;;;8.63;1.60;;;;;;;-3.03;100.00;95650.63;6192297;23;20422;-91
2023/02/26 02:04:46;;;;;;;4.87;1.53;;;;;;;-3.01;100.00;95648.81;6191868;23;20889;-90
2023/02/26 02:07:12;;;;;;;9.80;1.60;;;;;;;-3.04;100.00;95647.25;6218003;23;20954;-90
2023/02/26 02:09:39;;;;;;;3.87;1.20;;;;;;;-3.04;100.00;95649.00;6197150;23;20457;-90
2023/02/26 02:12:20;;;;;;;5.67;1.40;;;;;;;-3.10;100.00;95642.44;6227641;23;21179;-91
2023/02/26 02:15:17;;;;;;;4.70;1.27;;;;;;;-3.23;100.00;95644.91;6207973;23;20425;-90
2023/02/26 02:18:09;;;;;;;5.37;1.60;;;;;;;-3.26;100.00;95647.66;6201118;23;20444;-90
2023/02/26 02:21:00;;;;;;;4.37;1.77;;;;;;;-3.31;100.00;95649.69;6193584;23;20477;-90
2023/02/26 02:23:46;;;;;;;4.60;1.53;;;;;;;-3.42;100.00;95655.47;6191676;23;20419;-91
2023/02/26 02:26:53;;;;;;;3.60;1.30;;;;;;;-3.41;100.00;95651.13;6219026;23;20417;-90
2023/02/26 02:29:47;;;;;;;3.90;1.40;;;;;;;-3.29;100.00;95657.31;6192990;23;20423;-91
2023/02/26 02:32:39;;;;;;;4.33;1.30;;;;;;;-3.36;100.00;95654.25;6191534;23;20430;-90
2023/02/26 02:35:49;;;;;;;5.87;1.80;;;;;;;-3.45;100.00;95665.91;6192323;23;20415;-90
2023/02/26 02:38:24;;;;;;;7.77;2.03;;;;;;;-3.54;100.00;95670.75;6189070;23;20452;-90
2023/02/26 02:40:57;;;;;;;3.33;1.60;;;;;;;-3.57;100.00;95666.59;6191027;23;20422;-90
2023/02/26 02:43:28;;;;;;;5.20;1.75;;;;;;;-3.61;100.00;95671.09;6189785;23;20419;-90
2023/02/26 02:45:54;;;;;;;5.93;1.93;;;;;;;-3.56;100.00;95666.50;6191327;23;20039;-90
2023/02/26 02:48:59;;;;;;;8.03;1.93;;;;;;;-3.50;100.00;95670.47;6192907;23;20439;-90
2023/02/26 02:51:31;;;;;;;3.87;1.30;;;;;;;-3.59;100.00;95674.41;6217059;23;20045;-90
2023/02/26 02:54:15;;;;;;;5.73;1.33;;;;;;;-3.71;100.00;95674.28;6192288;23;20477;-91
2023/02/26 02:56:55;;;;;;;2.95;1.00;;;;;;;-3.57;100.00;95672.56;6191762;22;21198;-90
2023/02/26 02:59:44;;;;;;;5.43;1.80;;;;;;;-3.65;100.00;95679.06;6193616;23;20016;-91
2023/02/26 03:02:25;;;;;;;3.60;1.33;;;;;;;-3.72;100.00;95683.72;6194481;23;20419;-90
2023/02/26 03:04:51;;;;;;;5.37;1.33;;;;;;;-3.68;100.00;95680.06;6194308;23;20431;-91
2023/02/26 03:07:17;;;;;;;8.10;1.77;;;;;;;-3.73;100.00;95686.38;6195330;23;20446;-90
2023/02/26 03:09:46;;;;;;;5.93;1.27;;;;;;;-3.69;100.00;95687.84;6195409;23;20425;-91
2023/02/26 03:12:12;;;;;;;5.17;1.50;;;;;;;-3.61;100.00;95685.69;6195333;23;20012;-90
2023/02/26 03:14:44;;;;;;;5.13;1.67;;;;;;;-3.61;100.00;95686.50;6220910;23;20457;-91
2023/02/26 03:17:32;;;;;;;5.23;1.27;;;;;;;-3.53;100.00;95687.81;6198081;23;20019;-91
2023/02/26 03:20:04;;;;;;;4.57;1.20;;;;;;;-3.57;100.00;95685.41;6196489;23;20403;-90
2023/02/26 03:22:44;;;;;;;5.63;2.07;;;;;;;-3.64;100.00;95696.13;6196063;23;20415;-91
2023/02/26 03:25:26;;;;;;;2.53;1.20;;;;;;;-3.79;100.00;95702.94;6194342;23;20463;-91
2023/02/26 03:28:29;;;;;;;4.13;1.30;;;;;;;-3.72;100.00;95701.72;6195018;23;20965;-90
2023/02/26 03:31:16;;;;;;;3.43;1.57;;;;;;;-3.73;100.00;95697.47;6201423;23;20445;-91
2023/02/26 03:33:46;;;;;;;3.77;1.30;;;;;;;-3.85;100.00;95703.31;6209469;23;20411;-91
2023/02/26 03:36:28;;;;;;;4.47;1.30;;;;;;;-3.79;100.00;95697.81;6209550;23;20422;-90
2023/02/26 03:39:35;;;;;;;3.93;1.30;;;;;;;-3.78;100.00;95708.94;6231023;23;20419;-90
2023/02/26 03:42:00;;;;;;;7.23;1.20;;;;;;;-3.79;100.00;95708.09;6196434;23;20425;-91
2023/02/26 03:44:56;;;;;;;4.10;1.30;;;;;;;-3.79;100.00;95710.66;6223115;23;20510;-92
2023/02/26 03:47:23;;;;;;;7.67;1.50;;;;;;;-3.81;100.00;95710.75;6196094;23;20402;-91
2023/02/26 03:49:58;;;;;;;3.97;1.10;;;;;;;-3.87;100.00;95715.41;6195905;23;20398;-92
2023/02/26 03:52:28;;;;;;;5.23;1.20;;;;;;;-3.92;100.00;95719.97;6196116;23;20438;-91
2023/02/26 03:55:40;;;;;;;3.70;1.20;;;;;;;-3.95;100.00;95722.72;6198889;23;20414;-91
2023/02/26 03:58:34;;;;;;;3.83;1.30;;;;;;;-3.91;100.00;95729.34;6224499;23;20510;-91
2023/02/26 04:01:26;;;;;;;3.50;1.10;;;;;;;-3.91;100.00;95731.91;6200333;23;20415;-91
2023/02/26 04:04:06;;;;;;;4.60;1.37;;;;;;;-3.99;100.00;95736.59;6197289;23;20422;-91
2023/02/26 04:06:33;;;;;;;4.67;1.17;;;;;;;-3.98;100.00;95738.28;6194452;23;21111;-91
2023/02/26 04:09:01;;;;;;;4.87;1.53;;;;;;;-3.99;100.00;95739.16;6192767;23;20423;-91
2023/02/26 04:11:28;;;;;;;5.60;1.47;;;;;;;-4.14;100.00;95743.41;6192862;23;20898;-91
2023/02/26 04:13:54;;;;;;;3.83;1.40;;;;;;;-4.10;100.00;95743.16;6194281;23;20415;-91
2023/02/26 04:16:20;;;;;;;5.90;1.43;;;;;;;-4.07;100.00;95745.56;6194785;23;20522;-90
2023/02/26 04:18:48;;;;;;;9.50;2.37;;;;;;;-4.11;100.00;95743.25;6194923;23;20080;-92
2023/02/26 04:21:17;;;;;;;2.27;1.10;;;;;;;-4.09;100.00;95743.97;6193943;23;20940;-91
2023/02/26 04:23:43;;;;;;;8.57;1.47;;;;;;;-4.08;100.00;95748.22;6193993;23;20423;-91
2023/02/26 04:26:09;;;;;;;6.73;1.70;;;;;;;-4.20;100.00;95757.38;6194496;23;20479;-92
2023/02/26 04:28:39;;;;;;;2.80;1.20;;;;;;;-4.10;100.00;95756.00;6193361;23;20063;-91
2023/02/26 04:31:11;;;;;;;7.07;1.60;;;;;;;-4.20;100.00;95757.38;6191382;23;20415;-90
2023/02/26 04:33:38;;;;;;;4.82;1.73;;;;;;;-4.14;100.00;95763.94;6193925;23;20513;-91
2023/02/26 04:36:05;;;;;;;2.07;1.10;;;;;;;-4.14;100.00;95759.63;6193076;23;20040;-91
2023/02/26 04:38:32;;;;;;;3.27;1.23;;;;;;;-4.16;100.00;95764.00;6193388;23;20015;-91
2023/02/26 04:40:58;;;;;;;4.63;1.60;;;;;;;-4.09;100.00;95773.06;6218533;23;20751;-91
2023/02/26 04:43:24;;;;;;;5.00;1.30;;;;;;;-4.11;100.00;95772.31;6192733;23;20415;-91
2023/02/26 04:46:09;;;;;;;4.33;1.70;;;;;;;-4.13;100.00;95768.16;6197967;23;20024;-91
2023/02/26 04:48:35;;;;;;;5.00;1.47;;;;;;;-4.19;100.00;95774.47;6191894;23;20430;-90
2023/02/26 04:51:06;;;;;;;6.27;1.40;;;;;;;-4.20;100.00;95772.78;6191218;23;20015;-91
2023/02/26 04:53:35;;;;;;;5.50;1.40;;;;;;;-4.25;100.00;95772.22;6192891;23;20429;-91
2023/02/26 04:56:01;;;;;;;5.07;1.30;;;;;;;-4.27;100.00;95779.16;6191601;23;20419;-91
2023/02/26 04:58:27;;;;;;;3.80;1.13;;;;;;;-4.28;100.00;95782.66;6191902;23;20926;-91
2023/02/26 05:00:56;;;;;;;6.50;1.87;;;;;;;-4.29;100.00;95784.41;6192680;23;20422;-91
2023/02/26 05:03:40;;;;;;;5.37;1.30;;;;;;;-4.27;100.00;95787.69;6216970;23;20480;-91
2023/02/26 05:06:12;;;;;;;7.10;2.45;;;;;;;-4.21;100.00;95794.25;6191809;23;20439;-90
2023/02/26 05:08:41;;;;;;;3.95;1.35;;;;;;;-4.14;100.00;95793.03;6192300;23;20068;-91
2023/02/26 05:11:09;;;;;;;4.80;1.30;;;;;;;-4.15;100.00;95793.94;6218070;23;20008;-91
2023/02/26 05:13:38;;;;;;;7.43;2.23;;;;;;;-4.09;100.00;95792.75;6193944;23;20410;-91
2023/02/26 05:16:04;;;;;;;4.83;1.60;;;;;;;-4.04;100.00;95801.91;6193624;23;20514;-91
2023/02/26 05:18:31;;;;;;;6.87;1.97;;;;;;;-3.97;100.00;95794.69;6193640;23;20451;-91
2023/02/26 05:20:57;;;;;;;3.73;1.23;;;;;;;-3.98;100.00;95798.19;6211524;22;20404;-91
2023/02/26 05:23:26;;;;;;;2.23;1.10;;;;;;;-4.01;100.00;95802.66;6216422;22;20488;-91
2023/02/26 05:25:55;;;;;;;6.00;1.93;;;;;;;-3.94;100.00;95807.38;6215909;23;20476;-91
2023/02/26 05:28:22;;;;;;;4.83;1.53;;;;;;;-3.91;100.00;95801.25;6210499;23;20433;-91
2023/02/26 05:30:47;;;;;;;4.13;1.30;;;;;;;-3.91;100.00;95806.38;6191706;23;20434;-90
2023/02/26 05:33:13;;;;;;;2.93;1.30;;;;;;;-3.96;100.00;95800.66;6192143;23;20414;-92
2023/02/26 05:35:42;;;;;;;5.80;1.53;;;;;;;-3.92;100.00;95799.59;6201434;23;20399;-91
2023/02/26 05:38:11;;;;;;;5.93;1.30;;;;;;;-3.84;100.00;95810.28;6203233;23;20012;-91
2023/02/26 05:40:45;;;;;;;4.50;1.40;;;;;;;-3.86;100.00;95805.22;6193400;23;20414;-91
2023/02/26 05:43:10;;;;;;;4.50;1.43;;;;;;;-3.86;100.00;95806.97;6216219;23;20411;-90
2023/02/26 05:45:36;;;;;;;7.27;1.77;;;;;;;-3.84;100.00;95802.56;6216052;23;20427;-91
2023/02/26 05:48:02;;;;;;;4.63;1.50;;;;;;;-3.77;100.00;95813.34;6191201;23;20020;-91
2023/02/26 05:50:29;;;;;;;6.23;1.80;;;;;;;-3.83;100.00;95817.06;6188804;23;20465;-91
2023/02/26 05:52:55;;;;;;;4.87;1.97;;;;;;;-3.89;100.00;95817.38;6191209;23;20514;-91
2023/02/26 05:55:21;;;;;;;7.50;1.50;;;;;;;-3.89;100.00;95825.09;6192164;23;20434;-91
2023/02/26 06:04:57;;;;;;;5.87;1.83;;;;;;;-3.72;100.00;95832.75;6127492;23;20500;-91
2023/02/26 06:07:32;;;;;;;3.33;1.53;;;;;;;-3.84;100.00;95841.13;6207796;23;20427;-91
2023/02/26 06:10:56;;;;;;;8.03;2.33;;;;;;;-3.79;100.00;95849.38;6148952;23;20018;-91
2023/02/26 06:13:31;;;;;;;7.53;1.67;;;;;;;-3.74;100.00;95844.84;6083600;23;20469;-91
2023/02/26 06:16:36;;;;;;;8.63;1.63;;;;;;;-3.68;100.00;95841.13;6058722;23;20463;-91
2023/02/26 06:19:51;;;;;;;6.60;1.57;;;;;;;-3.64;100.00;95851.16;6074057;23;20080;-91
2023/02/26 06:22:20;;;;;;;3.90;1.50;;;;;;;-3.56;100.00;95856.69;6127444;23;20422;-91
2023/02/26 06:25:11;;;;;;;4.60;1.70;;;;;;;-3.57;100.00;95857.63;6088285;23;20473;-91
2023/02/26 06:27:37;;;;;;;4.60;1.43;;;;;;;-3.72;100.00;95863.59;6103390;23;20425;-91
2023/02/26 06:34:21;;;;;;;4.77;1.57;;;;;;;-3.62;100.00;95877.59;6035635;23;20104;-92
2023/02/26 06:41:09;;;;;;;2.77;1.37;;;;;;;-3.63;100.00;95878.50;6131508;23;20417;-92
2023/02/26 06:44:06;;;;;;;6.00;1.70;;;;;;;-3.54;100.00;95881.50;6165725;23;20447;-92
2023/02/26 06:50:31;;;;;;;5.70;1.80;;;;;;;-3.69;100.00;95894.28;6139530;23;20866;-91
2023/02/26 06:53:23;;;;;;;8.10;2.13;;;;;;;-3.65;100.00;95898.34;6148127;23;20423;-91
2023/02/26 06:55:55;;;;;;;8.23;2.17;;;;;;;-3.69;100.00;95901.13;6150720;23;20048;-91
2023/02/26 06:58:31;;;;;;;6.53;2.67;;;;;;;-3.55;100.00;95906.38;6162350;23;20451;-90
2023/02/26 07:01:01;;;;;;;7.80;2.00;;;;;;;-3.51;100.00;95907.88;6156913;23;20934;-91
2023/02/26 07:03:55;;;;;;;6.03;2.20;;;;;;;-3.43;100.00;95910.03;6165804;23;20940;-91
2023/02/26 07:06:22;;;;;;;6.63;2.27;;;;;;;-3.28;100.00;95916.94;6164141;23;20470;-91
2023/02/26 07:08:47;;;;;;;7.27;2.77;;;;;;;-3.22;100.00;95919.19;6170928;23;20906;-91
2023/02/26 07:11:13;;;;;;;6.23;2.00;;;;;;;-3.18;100.00;95910.38;6148004;23;20016;-91
2023/02/26 07:13:51;;;;;;;6.60;2.00;;;;;;;-2.87;100.00;95924.13;6166446;23;20570;-91
2023/02/26 07:17:19;;;;;;;5.03;1.80;;;;;;;-2.41;100.00;95919.78;6202509;23;20410;-91
2023/02/26 07:20:12;;;;;;;6.60;1.77;;;;;;;-2.73;100.00;95911.31;6168477;23;20988;-91
2023/02/26 07:22:39;;;;;;;5.23;1.90;;;;;;;-2.83;100.00;95914.47;6165497;23;20980;-91
2023/02/26 07:25:26;;;;;;;4.60;1.83;;;;;;;-2.98;100.00;95923.88;6191167;23;21357;-91
2023/02/26 07:28:21;;;;;;;4.97;1.47;;;;;;;-3.21;100.00;95931.09;6152530;23;20023;-91
2023/02/26 07:30:57;;;;;;;5.23;1.63;;;;;;;-3.03;100.00;95934.41;6190342;23;20411;-91
2023/02/26 07:33:30;;;;;;;8.53;1.80;;;;;;;-3.06;100.00;95934.59;6165662;23;20426;-91
2023/02/26 07:36:15;;;;;;;7.88;1.65;;;;;;;-3.19;100.00;95943.88;6161780;23;20012;-91
2023/02/26 07:39:04;;;;;;;4.40;1.60;;;;;;;-2.69;100.00;95945.41;6163560;23;20016;-91
2023/02/26 07:44:50;;;;;;;7.47;1.63;;;;;;;-2.83;100.00;95961.63;6247970;23;19961;-91
2023/02/26 07:47:19;;;;;;;7.67;1.90;;;;;;;-2.55;100.00;95960.91;6220599;23;20419;-91
2023/02/26 07:50:00;;;;;;;5.93;1.90;;;;;;;-2.41;100.00;95955.84;6220613;23;20434;-91
2023/02/26 07:52:28;;;;;;;5.73;1.60;;;;;;;-2.42;100.00;95955.91;6182778;23;20519;-91
2023/02/26 07:54:55;;;;;;;4.43;1.70;;;;;;;-2.47;100.00;95963.91;6183678;23;20513;-91
2023/02/26 07:57:21;;;;;;;6.00;2.40;;;;;;;-2.52;100.00;95962.50;6185611;23;20403;-90
2023/02/26 08:00:20;;;;;;;5.20;2.07;;;;;;;-2.43;100.00;95969.69;6191191;23;20472;-90
2023/02/26 08:02:50;;;;;;;5.43;1.77;;;;;;;-2.49;100.00;95963.16;6192664;23;20083;-90
2023/02/26 08:05:20;;;;;;;3.73;1.80;;;;;;;-2.51;100.00;95964.16;6192765;23;20435;-90
2023/02/26 08:07:45;;;;;;;4.37;2.87;;;;;;;-2.48;100.00;95967.41;6193618;23;20701;-90
2023/02/26 08:10:11;;;;;;;5.70;1.70;;;;;;;-2.40;100.00;95969.53;6218515;23;20422;-90
2023/02/26 08:12:37;;;;;;;8.23;2.30;;;;;;;-2.19;100.00;95973.44;6243855;23;20605;-90
2023/02/26 08:15:04;;;;;;;7.73;1.93;;;;;;;-2.24;100.00;95967.75;6192728;23;20406;-90
2023/02/26 08:17:30;;;;;;;7.33;2.23;;;;;;;-1.99;100.00;95969.72;6192881;23;20020;-90
2023/02/26 08:19:55;;;;;;;6.63;2.40;;;;;;;-2.05;100.00;95970.06;6191940;23;20655;-90
2023/02/26 08:22:22;;;;;;;11.87;2.80;;;;;;;-1.97;100.00;95974.81;6217133;23;20023;-90
2023/02/26 08:24:49;;;;;;;4.20;1.70;;;;;;;-1.85;100.00;95980.97;6191986;23;20074;-90
2023/02/26 08:27:15;;;;;;;3.73;1.80;;;;;;;-1.79;100.00;95978.88;6217544;23;20413;-90
2023/02/26 08:29:41;;;;;;;4.93;2.13;;;;;;;-1.53;100.00;95973.94;6191756;23;20408;-90
2023/02/26 08:32:08;;;;;;;12.60;2.87;;;;;;;-1.36;100.00;95976.31;6191247;23;20020;-89
2023/02/26 08:34:33;;;;;;;6.30;1.80;;;;;;;-1.35;100.00;95975.38;6192515;23;20489;-90
2023/02/26 08:36:59;;;;;;;3.87;1.47;;;;;;;-1.90;100.00;95978.69;6191280;23;20423;-89
2023/02/26 08:39:25;;;;;;;6.37;1.83;;;;;;;-1.28;100.00;95966.34;6216469;23;20583;-90
2023/02/26 08:42:15;;;;;;;7.30;2.60;;;;;;;-0.95;100.00;95963.44;6190220;23;20019;-89
2023/02/26 08:44:48;;;;;;;6.57;2.03;;;;;;;-0.93;100.00;95965.13;6191371;23;20042;-89
2023/02/26 08:47:14;;;;;;;11.73;3.17;;;;;;;-1.13;100.00;95968.94;6218007;23;20415;-89
2023/02/26 08:49:49;;;;;;;8.50;3.30;;;;;;;-1.35;100.00;95977.97;6192165;23;20023;-89
2023/02/26 08:52:14;;;;;;;7.50;2.57;;;;;;;-1.61;100.00;95983.84;6191192;23;20433;-89
2023/02/26 08:54:40;;;;;;;6.17;2.20;;;;;;;-1.83;100.00;95990.28;6216568;23;20403;-89
2023/02/26 08:57:06;;;;;;;7.40;1.90;;;;;;;-2.01;100.00;96007.66;6216252;23;20035;-89
2023/02/26 08:59:32;;;;;;;4.83;2.53;;;;;;;-1.96;100.00;96004.81;6192291;23;20448;-89
2023/02/26 09:01:57;;;;;;;5.23;1.53;;;;;;;-1.95;100.00;96001.28;6188986;23;20436;-89
2023/02/26 09:04:25;;;;;;;7.83;2.13;;;;;;;-1.90;100.00;96007.84;6214640;23;20011;-89
2023/02/26 09:06:52;;;;;;;6.20;1.50;;;;;;;-2.13;100.00;96016.91;6216955;23;20012;-89
2023/02/26 09:09:18;;;;;;;3.60;1.70;;;;;;;-2.17;100.00;96018.00;6191480;23;20495;-89
2023/02/26 09:11:44;;;;;;;4.93;1.80;;;;;;;-2.07;100.00;96017.47;6191025;23;20410;-89
2023/02/26 09:14:10;;;;;;;3.47;1.70;;;;;;;-2.10;100.00;96026.22;6191765;23;20073;-89
2023/02/26 09:16:40;;;;;;;6.90;2.33;;;;;;;-2.08;100.00;96019.19;6192263;23;20743;-89
2023/02/26 09:19:11;;;;;;;5.80;1.80;;;;;;;-2.09;100.00;96021.88;6217739;23;20447;-88
2023/02/26 09:21:37;;;;;;;4.00;1.90;;;;;;;-1.95;100.00;96027.06;6192522;23;20426;-89
2023/02/26 09:24:03;;;;;;;3.23;1.67;;;;;;;-2.01;100.00;96035.16;6193037;23;20758;-89
2023/02/26 09:26:30;;;;;;;4.60;2.37;;;;;;;-2.05;100.00;96037.06;6193369;23;20023;-89
2023/02/26 09:28:56;;;;;;;2.23;1.37;;;;;;;-1.93;100.00;96035.56;6192636;23;20091;-89
2023/02/26 09:31:28;;;;;;;6.17;1.53;;;;;;;-1.84;100.00;96040.19;6192518;23;21037;-89
2023/02/26 09:33:54;;;;;;;4.70;1.80;;;;;;;-1.84;100.00;96040.19;6192705;23;20352;-89
2023/02/26 09:36:23;;;;;;;5.43;1.90;;;;;;;-1.77;100.00;96046.66;6217488;23;20949;-89
2023/02/26 09:38:58;;;;;;;5.97;1.93;;;;;;;-1.68;100.00;96056.44;6192772;23;20016;-89
2023/02/26 09:41:37;;;;;;;4.37;1.90;;;;;;;-1.58;100.00;96051.53;6193181;23;20419;-89
2023/02/26 09:44:14;;;;;;;4.17;1.77;;;;;;;-1.71;100.00;96055.75;6195600;23;20442;-89
2023/02/26 09:47:17;;;;;;;7.73;2.43;;;;;;;-1.84;100.00;96054.81;6196610;23;20423;-89
2023/02/26 09:49:54;;;;;;;3.90;1.70;;;;;;;-1.98;100.00;96058.16;6204670;23;20903;-89
2023/02/26 09:52:31;;;;;;;4.10;1.80;;;;;;;-1.67;100.00;96065.81;6200653;23;20756;-89
2023/02/26 09:55:26;;;;;;;3.90;2.10;;;;;;;-1.61;100.00;96066.38;6203342;23;20411;-89
2023/02/26 09:57:59;;;;;;;4.30;1.73;;;;;;;-1.49;100.00;96058.75;6188869;23;20423;-89
2023/02/26 10:00:37;;;;;;;2.92;1.50;;;;;;;-1.67;100.00;96067.56;6196899;23;20445;-90
2023/02/26 10:03:45;;;;;;;3.50;1.83;;;;;;;-1.48;100.00;96062.16;6195525;23;20020;-89
2023/02/26 10:06:13;;;;;;;6.63;2.33;;;;;;;-1.45;100.00;96064.56;6204105;23;20449;-89
2023/02/26 10:12:16;;;;;;;3.10;1.50;;;;;;;-0.93;100.00;96065.78;6217423;23;20426;-89
2023/02/26 10:15:00;;;;;;;3.57;1.60;;;;;;;-1.07;100.00;96061.47;6193843;23;20415;-89
2023/02/26 10:17:53;;;;;;;6.67;2.17;;;;;;;-0.80;100.00;96064.13;6192791;23;20500;-89
2023/02/26 10:20:21;;;;;;;5.67;2.57;;;;;;;-0.77;100.00;96069.94;6192193;23;20462;-93
2023/02/26 10:22:55;;;;;;;4.70;1.70;;;;;;;-0.28;100.00;96069.44;6193778;23;20493;-91
2023/02/26 10:25:32;;;;;;;6.03;2.03;;;;;;;-0.08;100.00;96069.94;6201106;23;20526;-91
2023/02/26 10:28:04;;;;;;;3.53;1.23;;;;;;;-0.10;100.00;96074.34;6195387;23;20047;-92
2023/02/26 10:30:41;;;;;;;3.73;1.50;;;;;;;-0.09;100.00;96076.03;6192848;23;20431;-92
2023/02/26 10:33:39;;;;;;;4.70;1.40;;;;;;;-0.09;100.00;96076.03;6195758;23;20476;-91
2023/02/26 10:36:27;;;;;;;2.40;1.47;;;;;;;-0.43;100.00;96083.34;6195725;23;20419;-91
2023/02/26 10:39:22;;;;;;;2.57;1.63;;;;;;;0.03;100.00;96072.66;6197885;23;20964;-90
2023/02/26 10:41:50;;;;;;;3.13;1.70;;;;;;;0.14;100.00;96071.97;6197975;23;20958;-90
2023/02/26 10:44:34;;;;;;;3.23;1.63;;;;;;;0.09;100.00;96072.25;6199912;23;20427;-92
2023/02/26 10:47:30;;;;;;;3.13;1.57;;;;;;;-0.18;100.00;96074.03;6193805;23;20434;-90
2023/02/26 10:50:19;;;;;;;4.73;2.60;;;;;;;-0.20;100.00;96091.38;6193738;23;20419;-89
2023/02/26 10:52:50;;;;;;;5.27;1.60;;;;;;;-0.03;100.00;96078.22;6217257;23;20442;-90
2023/02/26 10:55:36;;;;;;;3.33;1.77;;;;;;;-0.40;100.00;96079.72;6215154;23;20422;-90
2023/02/26 10:58:15;;;;;;;3.77;1.20;;;;;;;-0.67;100.00;96087.41;6191008;23;20685;-89
2023/02/26 11:00:45;;;;;;;3.87;1.53;;;;;;;-0.32;100.00;96095.56;6192239;23;20477;-90
2023/02/26 11:03:36;;;;;;;3.40;1.90;;;;;;;-0.46;100.00;96093.84;6191362;23;20954;-90
2023/02/26 11:06:20;;;;;;;4.07;1.80;;;;;;;0.17;100.00;96072.59;6190380;23;20467;-93
2023/02/26 11:08:50;;;;;;;11.23;6.73;;;;;;;0.55;100.00;96082.19;6191719;23;20419;-89
2023/02/26 11:11:50;;;;;;;4.70;2.63;;;;;;;0.51;100.00;96080.75;6191356;23;20506;-90
2023/02/26 11:14:16;;;;;;;7.50;3.93;;;;;;;0.18;100.00;96074.25;6193273;23;21083;-92
2023/02/26 11:16:52;;;;;;;4.00;2.20;;;;;;;0.38;100.00;96080.72;6193585;23;20638;-94
2023/02/26 11:21:52;;;;;;;5.53;2.60;;;;;;;0.01;100.00;96081.44;6243966;23;20995;-83
2023/02/26 11:24:40;;;;;;;7.63;3.43;;;;;;;0.99;100.00;96080.97;6218471;23;20423;-83
2023/02/26 11:27:30;;;;;;;10.97;4.40;;;;;;;0.82;100.00;96081.28;6222911;23;20043;-84
2023/02/26 11:29:59;;;;;;;16.37;7.23;;;;;;;1.12;100.00;96079.19;6224324;23;20484;-85
2023/02/26 11:32:32;;;;;;;6.60;2.60;;;;;;;1.32;100.00;96087.34;6244403;23;20770;-87
2023/02/26 11:34:58;;;;;;;3.25;1.77;;;;;;;1.16;100.00;96082.41;6211476;23;20415;-87
2023/02/26 11:37:29;;;;;;;6.57;2.77;;;;;;;2.16;100.00;96078.78;6216037;23;20027;-90
2023/02/26 11:40:15;;;;;;;4.13;2.07;;;;;;;1.29;100.00;96082.38;6217370;23;20016;-89
2023/02/26 11:42:48;;;;;;;2.63;1.33;;;;;;;1.12;100.00;96084.38;6244041;22;20432;-88
2023/02/26 11:45:18;;;;;;;4.37;1.57;;;;;;;0.58;100.00;96084.56;6216803;23;20431;-88
2023/02/26 11:47:45;;;;;;;6.87;1.80;;;;;;;0.32;100.00;96086.28;6217505;23;20820;-87
2023/02/26 11:50:21;;;;;;;5.23;1.83;;;;;;;0.19;100.00;96077.66;6216670;23;20473;-88
2023/02/26 11:52:56;;;;;;;4.90;2.30;;;;;;;0.42;100.00;96081.34;6217379;23;20415;-87
2023/02/26 11:55:35;;;;;;;8.77;3.40;;;;;;;0.33;100.00;96077.59;6217155;23;20460;-86
2023/02/26 11:58:00;;;;;;;10.87;3.50;;;;;;;0.42;100.00;96081.34;6240738;23;20952;-87
2023/02/26 12:00:37;;;;;;;4.70;1.93;;;;;;;1.11;100.00;96082.72;6219131;23;20419;-87
2023/02/26 12:03:07;;;;;;;4.10;1.50;;;;;;;0.86;100.00;96073.19;6220830;23;20016;-87
2023/02/26 12:05:35;;;;;;;8.10;2.43;;;;;;;0.94;100.00;96073.50;6218602;23;20773;-87
2023/02/26 12:08:04;;;;;;;4.97;2.10;;;;;;;0.66;100.00;96079.69;6218538;23;21019;-87
2023/02/26 12:10:44;;;;;;;4.67;2.33;;;;;;;0.69;100.00;96079.50;6244173;23;20434;-87
2023/02/26 12:13:45;;;;;;;5.13;1.80;;;;;;;0.55;100.00;96082.19;6219808;23;20533;-87
2023/02/26 12:16:37;;;;;;;4.40;1.87;;;;;;;0.45;100.00;96079.38;6174291;23;20431;-85
2023/02/26 12:19:22;;;;;;;3.63;1.50;;;;;;;0.07;100.00;96089.66;6224816;23;20419;-87
2023/02/26 12:22:22;;;;;;;3.20;1.93;;;;;;;0.15;100.00;96089.97;6240415;23;20403;-87
2023/02/26 12:25:25;;;;;;;4.43;1.60;;;;;;;0.69;100.00;96089.84;6214576;23;20435;-86
2023/02/26 12:27:56;;;;;;;5.87;1.50;;;;;;;0.74;100.00;96079.22;6138029;22;21133;-87
2023/02/26 12:30:59;;;;;;;2.00;0.90;;;;;;;1.23;100.00;96087.97;6216501;23;20502;-86
2023/02/26 12:33:39;;;;;;;4.07;1.20;;;;;;;0.92;100.00;96067.59;6214192;23;20426;-87
2023/02/26 12:36:50;;;;;;;3.43;1.20;;;;;;;1.20;100.00;96076.06;6214360;23;20949;-86